createdAt,value
2018-12-19T00:01:07.381Z,-0.69
2018-12-19T00:03:38.373Z,-0.65
2018-12-19T00:06:09.726Z,-0.67
2018-12-19T00:08:38.759Z,-0.58
2018-12-19T00:11:08.171Z,-0.59
2018-12-19T00:13:38.865Z,-0.54
2018-12-19T00:16:07.893Z,-0.69
2018-12-19T00:18:36.909Z,-0.67
2018-12-19T00:21:06.395Z,-0.73
2018-12-19T00:23:35.842Z,-0.65
2018-12-19T00:26:04.969Z,-0.60
2018-12-19T00:28:36.311Z,-0.59
2018-12-19T00:31:07.542Z,-0.46
2018-12-19T00:33:38.881Z,-0.35
2018-12-19T00:36:10.089Z,-0.25
2018-12-19T00:38:40.586Z,-0.23
2018-12-19T00:41:09.586Z,-0.22
2018-12-19T00:43:38.644Z,-0.21
2018-12-19T00:46:08.873Z,-0.20
2018-12-19T00:48:37.890Z,-0.15
2018-12-19T00:51:07.401Z,-0.17
2018-12-19T00:53:37.687Z,-0.14
2018-12-19T00:56:06.701Z,-0.13
2018-12-19T00:58:35.722Z,-0.09
2018-12-19T01:01:05.186Z,-0.03
2018-12-19T01:03:34.206Z,-0.06
2018-12-19T01:06:03.396Z,-0.09
2018-12-19T01:08:32.773Z,-0.11
2018-12-19T01:11:01.867Z,-0.18
2018-12-19T01:13:31.053Z,-0.26
2018-12-19T01:16:00.467Z,-0.27
2018-12-19T01:18:29.972Z,-0.22
2018-12-19T01:20:59.069Z,-0.20
2018-12-19T01:23:28.476Z,-0.16
2018-12-19T01:25:57.482Z,-0.13
2018-12-19T01:28:26.485Z,-0.10
2018-12-19T01:30:55.830Z,-0.07
2018-12-19T01:33:24.867Z,-0.04
2018-12-19T01:35:53.981Z,-0.03
2018-12-19T01:38:24.337Z,0.01
2018-12-19T01:40:53.429Z,0.00
2018-12-19T01:43:22.446Z,0.02
2018-12-19T01:45:51.734Z,-0.10
2018-12-19T01:48:21.441Z,-0.15
2018-12-19T01:50:50.673Z,-0.08
2018-12-19T01:53:19.706Z,-0.09
2018-12-19T01:55:48.843Z,-0.02
2018-12-19T01:58:17.843Z,0.01
2018-12-19T02:00:47.922Z,-0.45
2018-12-19T02:03:16.956Z,0.07
2018-12-19T02:05:45.998Z,0.05
2018-12-19T02:08:15.456Z,-0.01
2018-12-19T02:10:44.470Z,-0.07
2018-12-19T02:13:13.486Z,-0.01
2018-12-19T02:15:42.817Z,0.02
2018-12-19T02:18:11.843Z,0.07
2018-12-19T02:20:41.923Z,0.06
2018-12-19T02:23:11.362Z,0.14
2018-12-19T02:25:40.521Z,0.15
2018-12-19T02:28:09.629Z,0.23
2018-12-19T02:30:39.021Z,0.23
2018-12-19T02:33:08.138Z,0.23
2018-12-19T02:35:37.236Z,0.23
2018-12-19T02:38:06.655Z,0.18
2018-12-19T02:40:35.742Z,0.15
2018-12-19T02:43:04.954Z,0.28
2018-12-19T02:45:34.370Z,0.29
2018-12-19T02:48:03.450Z,0.28
2018-12-19T02:50:32.563Z,0.28
2018-12-19T02:53:02.042Z,0.32
2018-12-19T02:55:31.069Z,0.37
2018-12-19T02:58:00.069Z,0.36
2018-12-19T03:00:29.366Z,0.37
2018-12-19T03:02:58.385Z,0.37
2018-12-19T03:05:27.398Z,0.35
2018-12-19T03:07:56.462Z,0.33
2018-12-19T03:10:25.554Z,0.33
2018-12-19T03:12:54.982Z,0.32
2018-12-19T03:15:25.324Z,0.32
2018-12-19T03:17:54.360Z,0.34
2018-12-19T03:20:23.493Z,0.29
2018-12-19T03:22:52.893Z,0.34
2018-12-19T03:25:22.006Z,0.36
2018-12-19T03:27:51.098Z,0.36
2018-12-19T03:30:20.415Z,0.28
2018-12-19T03:32:49.526Z,0.26
2018-12-19T03:35:19.018Z,0.30
2018-12-19T03:37:48.392Z,0.28
2018-12-19T03:40:17.490Z,0.33
2018-12-19T03:42:46.591Z,0.39
2018-12-19T03:45:16.004Z,0.43
2018-12-19T03:47:45.026Z,0.44
2018-12-19T03:50:14.349Z,0.48
2018-12-19T03:52:43.723Z,0.46
2018-12-19T03:55:12.719Z,0.48
2018-12-19T03:57:41.964Z,0.46
2018-12-19T04:00:11.597Z,0.41
2018-12-19T04:02:40.602Z,0.26
2018-12-19T04:05:09.716Z,0.32
2018-12-19T04:07:39.289Z,0.30
2018-12-19T04:10:08.831Z,0.36
2018-12-19T04:12:37.902Z,0.40
2018-12-19T04:15:07.517Z,-0.44
2018-12-19T04:17:36.536Z,0.51
2018-12-19T04:20:06.077Z,0.50
2018-12-19T04:22:37.459Z,0.58
2018-12-19T04:25:06.453Z,0.60
2018-12-19T04:27:35.472Z,0.64
2018-12-19T04:30:05.065Z,0.71
2018-12-19T04:32:34.413Z,0.76
2018-12-19T04:35:03.669Z,0.81
2018-12-19T04:37:32.741Z,0.77
2018-12-19T04:40:05.648Z,0.80
2018-12-19T04:42:33.174Z,0.83
2018-12-19T04:45:02.337Z,0.87
2018-12-19T04:47:31.365Z,0.95
2018-12-19T04:50:01.585Z,0.88
2018-12-19T04:52:30.732Z,0.87
2018-12-19T04:54:59.783Z,0.84
2018-12-19T04:57:29.193Z,0.85
2018-12-19T04:59:58.455Z,0.83
2018-12-19T05:02:27.477Z,0.80
2018-12-19T05:04:56.518Z,0.82
2018-12-19T05:07:25.640Z,0.81
2018-12-19T05:09:54.661Z,0.83
2018-12-19T05:12:23.687Z,0.80
2018-12-19T05:14:52.933Z,0.83
2018-12-19T05:17:21.958Z,0.86
2018-12-19T05:19:51.397Z,0.80
2018-12-19T05:22:20.431Z,0.83
2018-12-19T05:24:49.467Z,0.85
2018-12-19T05:27:18.837Z,0.82
2018-12-19T05:29:47.906Z,0.67
2018-12-19T05:32:17.190Z,0.79
2018-12-19T05:34:46.627Z,0.80
2018-12-19T05:37:16.242Z,0.82
2018-12-19T05:39:45.251Z,0.78
2018-12-19T05:42:14.743Z,0.81
2018-12-19T05:44:43.926Z,0.81
2018-12-19T05:47:13.278Z,0.79
2018-12-19T05:49:43.265Z,0.77
2018-12-19T05:52:12.297Z,0.76
2018-12-19T05:54:41.342Z,0.75
2018-12-19T05:57:12.302Z,0.78
2018-12-19T05:59:41.410Z,0.81
2018-12-19T06:02:10.473Z,0.79
2018-12-19T06:04:42.633Z,0.89
2018-12-19T06:07:11.663Z,0.92
2018-12-19T06:09:40.793Z,0.98
2018-12-19T06:12:10.444Z,1.02
2018-12-19T06:14:39.736Z,1.07
2018-12-19T06:17:09.005Z,1.14
2018-12-19T06:19:38.335Z,1.18
2018-12-19T06:22:07.366Z,1.26
2018-12-19T06:24:36.361Z,1.35
2018-12-19T06:27:05.729Z,1.44
2018-12-19T06:29:34.826Z,1.51
2018-12-19T06:32:03.885Z,1.59
2018-12-19T06:34:33.494Z,1.68
2018-12-19T06:37:02.958Z,1.77
2018-12-19T06:39:31.997Z,1.81
2018-12-19T06:42:01.525Z,1.87
2018-12-19T06:44:30.523Z,1.90
2018-12-19T06:46:59.962Z,1.94
2018-12-19T06:49:29.030Z,1.98
2018-12-19T06:51:58.129Z,1.97
2018-12-19T06:54:27.329Z,1.98
2018-12-19T06:56:56.766Z,1.91
2018-12-19T06:59:25.770Z,1.70
2018-12-19T07:01:54.809Z,1.71
2018-12-19T07:04:23.885Z,1.76
2018-12-19T07:06:53.009Z,1.76
2018-12-19T07:09:22.160Z,1.70
2018-12-19T07:11:51.499Z,1.61
2018-12-19T07:14:20.518Z,1.58
2018-12-19T07:16:49.644Z,1.50
2018-12-19T07:19:18.975Z,1.42
2018-12-19T07:21:47.993Z,1.46
2018-12-19T07:24:17.057Z,1.45
2018-12-19T07:26:46.112Z,1.39
2018-12-19T07:29:15.162Z,1.44
2018-12-19T07:31:44.172Z,1.36
2018-12-19T07:34:13.261Z,1.45
2018-12-19T07:36:42.288Z,1.56
2018-12-19T07:39:11.398Z,1.61
2018-12-19T07:41:40.430Z,1.66
2018-12-19T07:44:09.594Z,1.64
2018-12-19T07:46:38.610Z,1.66
2018-12-19T07:49:08.845Z,1.75
2018-12-19T07:51:37.830Z,1.82
2018-12-19T07:54:06.855Z,1.87
2018-12-19T07:56:35.875Z,1.90
2018-12-19T07:59:05.046Z,-0.66
2018-12-19T08:01:34.067Z,1.95
2018-12-19T08:04:03.825Z,1.95
2018-12-19T08:06:32.835Z,1.97
2018-12-19T08:09:01.854Z,2.00
2018-12-19T08:11:32.179Z,1.99
2018-12-19T08:14:01.205Z,1.99
2018-12-19T08:16:30.241Z,2.02
2018-12-19T08:18:59.614Z,2.04
2018-12-19T08:21:28.667Z,2.08
2018-12-19T08:23:57.649Z,2.09
2018-12-19T08:26:27.050Z,2.12
2018-12-19T08:28:56.317Z,2.20
2018-12-19T08:31:26.111Z,2.27
2018-12-19T08:33:55.509Z,2.26
2018-12-19T08:36:24.627Z,2.28
2018-12-19T08:38:53.641Z,2.30
2018-12-19T08:41:22.853Z,2.27
2018-12-19T08:43:51.893Z,2.04
2018-12-19T08:46:21.054Z,2.06
2018-12-19T08:48:51.107Z,2.02
2018-12-19T08:51:20.118Z,2.04
2018-12-19T08:53:49.433Z,1.95
2018-12-19T08:56:19.583Z,2.07
2018-12-19T08:58:48.751Z,2.13
2018-12-19T09:01:17.785Z,2.18
2018-12-19T09:03:47.091Z,2.20
2018-12-19T09:06:16.209Z,2.24
2018-12-19T09:08:45.239Z,2.17
2018-12-19T09:11:14.640Z,2.25
2018-12-19T09:13:43.661Z,2.22
2018-12-19T09:16:12.685Z,2.28
2018-12-19T09:18:42.107Z,2.27
2018-12-19T09:21:11.256Z,2.30
2018-12-19T09:23:40.369Z,2.27
2018-12-19T09:26:09.891Z,2.30
2018-12-19T09:28:38.991Z,2.34
2018-12-19T09:31:08.285Z,2.42
2018-12-19T09:33:38.184Z,2.43
2018-12-19T09:36:07.286Z,2.46
2018-12-19T09:38:37.003Z,2.44
2018-12-19T09:41:12.077Z,2.52
2018-12-19T09:43:38.005Z,2.51
2018-12-19T09:46:07.372Z,2.46
2018-12-19T09:48:36.402Z,2.43
2018-12-19T09:51:05.541Z,2.33
2018-12-19T09:53:35.164Z,2.38
2018-12-19T09:56:04.203Z,2.43
2018-12-19T09:58:33.277Z,2.42
2018-12-19T10:01:05.276Z,2.43
2018-12-19T10:03:33.894Z,2.44
2018-12-19T10:06:02.975Z,2.36
2018-12-19T10:08:32.005Z,2.42
2018-12-19T10:11:01.038Z,2.42
2018-12-19T10:13:31.099Z,2.49
2018-12-19T10:16:00.124Z,2.54
2018-12-19T10:18:29.212Z,2.60
2018-12-19T10:20:58.586Z,2.63
2018-12-19T10:23:28.410Z,2.68
2018-12-19T10:26:03.238Z,2.73
2018-12-19T10:28:35.268Z,2.82
2018-12-19T10:31:04.793Z,2.78
2018-12-19T10:33:34.011Z,2.85
2018-12-19T10:36:03.093Z,2.90
2018-12-19T10:38:32.275Z,2.91
2018-12-19T10:41:02.207Z,2.98
2018-12-19T10:43:31.400Z,3.01
2018-12-19T10:46:00.770Z,2.93
2018-12-19T10:48:29.929Z,2.90
2018-12-19T10:50:58.937Z,2.86
2018-12-19T10:53:29.221Z,2.86
2018-12-19T10:55:58.409Z,2.88
2018-12-19T10:58:27.511Z,2.77
2018-12-19T11:01:02.336Z,2.80
2018-12-19T11:03:31.437Z,2.85
2018-12-19T11:06:00.455Z,2.84
2018-12-19T11:08:29.832Z,2.87
2018-12-19T11:10:59.413Z,2.89
2018-12-19T11:13:28.539Z,2.88
2018-12-19T11:15:57.578Z,2.88
2018-12-19T11:18:26.607Z,2.89
2018-12-19T11:20:56.019Z,2.88
2018-12-19T11:23:25.529Z,2.93
2018-12-19T11:25:55.141Z,2.95
2018-12-19T11:28:24.181Z,2.97
2018-12-19T11:30:53.829Z,2.76
2018-12-19T11:33:22.920Z,2.80
2018-12-19T11:35:52.146Z,2.90
2018-12-19T11:38:21.538Z,2.90
2018-12-19T11:40:50.617Z,2.85
2018-12-19T11:43:19.732Z,2.88
2018-12-19T11:45:49.140Z,2.89
2018-12-19T11:48:18.730Z,2.94
2018-12-19T11:50:47.815Z,2.90
2018-12-19T11:53:17.444Z,2.95
2018-12-19T11:55:46.461Z,2.93
2018-12-19T11:58:16.058Z,2.77
2018-12-19T12:00:45.251Z,2.87
2018-12-19T12:03:14.306Z,2.83
2018-12-19T12:05:43.417Z,2.88
2018-12-19T12:08:12.793Z,2.94
2018-12-19T12:10:41.917Z,2.81
2018-12-19T12:13:11.128Z,2.70
2018-12-19T12:15:40.302Z,2.69
2018-12-19T12:18:11.158Z,2.74
2018-12-19T12:20:40.553Z,2.67
2018-12-19T12:23:10.010Z,2.62
2018-12-19T12:25:39.131Z,2.66
2018-12-19T12:28:08.299Z,2.71
2018-12-19T12:30:37.359Z,2.65
2018-12-19T12:33:06.429Z,2.53
2018-12-19T12:35:35.499Z,2.56
2018-12-19T12:38:05.314Z,2.47
2018-12-19T12:40:34.534Z,2.34
2018-12-19T12:43:04.151Z,2.28
2018-12-19T12:45:33.259Z,2.20
2018-12-19T12:48:02.318Z,2.05
2018-12-19T12:50:31.573Z,2.10
2018-12-19T12:53:00.816Z,2.11
2018-12-19T12:55:29.920Z,2.09
2018-12-19T12:57:59.040Z,2.11
2018-12-19T13:00:28.378Z,2.15
2018-12-19T13:02:58.120Z,2.14
2018-12-19T13:05:27.561Z,2.15
2018-12-19T13:07:57.174Z,2.24
2018-12-19T13:10:26.190Z,2.20
2018-12-19T13:12:55.609Z,2.13
2018-12-19T13:15:30.598Z,2.06
2018-12-19T13:18:00.451Z,2.03
2018-12-19T13:20:29.581Z,2.05
2018-12-19T13:22:58.854Z,2.11
2018-12-19T13:25:28.290Z,2.05
2018-12-19T13:27:57.805Z,2.01
2018-12-19T13:30:26.993Z,2.10
2018-12-19T13:32:56.680Z,2.12
2018-12-19T13:35:25.678Z,2.09
2018-12-19T13:37:54.905Z,1.98
2018-12-19T13:40:24.393Z,1.93
2018-12-19T13:42:53.538Z,2.06
2018-12-19T13:45:22.689Z,2.03
2018-12-19T13:47:51.908Z,2.07
2018-12-19T13:50:20.926Z,2.06
2018-12-19T13:52:49.950Z,2.03
2018-12-19T13:55:19.093Z,2.03
2018-12-19T13:57:48.273Z,2.00
2018-12-19T14:00:19.934Z,2.06
2018-12-19T14:02:49.335Z,2.10
2018-12-19T14:05:19.522Z,2.06
2018-12-19T14:07:49.105Z,2.08
2018-12-19T14:10:18.135Z,2.09
2018-12-19T14:12:47.193Z,2.02
2018-12-19T14:15:16.727Z,2.03
2018-12-19T14:17:45.735Z,2.11
2018-12-19T14:20:16.905Z,2.13
2018-12-19T14:22:45.925Z,2.17
2018-12-19T14:25:15.094Z,2.16
2018-12-19T14:27:44.477Z,2.21
2018-12-19T14:30:14.350Z,2.24
2018-12-19T14:32:43.476Z,2.30
2018-12-19T14:35:13.711Z,2.27
2018-12-19T14:37:43.920Z,2.30
2018-12-19T14:40:13.133Z,2.32
2018-12-19T14:42:42.444Z,2.31
2018-12-19T14:45:11.597Z,2.28
2018-12-19T14:47:41.605Z,2.27
2018-12-19T14:50:11.242Z,2.33
2018-12-19T14:52:41.270Z,2.36
2018-12-19T14:55:10.292Z,2.37
2018-12-19T14:57:40.397Z,2.39
2018-12-19T15:00:11.046Z,2.38
2018-12-19T15:02:40.406Z,2.34
2018-12-19T15:05:10.674Z,2.35
2018-12-19T15:07:41.180Z,2.27
2018-12-19T15:10:12.987Z,2.27
2018-12-19T15:12:43.036Z,2.29
2018-12-19T15:15:12.218Z,2.34
2018-12-19T15:17:41.257Z,2.31
2018-12-19T15:20:10.933Z,2.28
2018-12-19T15:22:40.133Z,2.31
2018-12-19T15:25:10.189Z,2.31
2018-12-19T15:27:39.665Z,2.28
2018-12-19T15:30:08.864Z,2.29
2018-12-19T15:32:38.660Z,2.45
2018-12-19T15:35:07.890Z,2.52
2018-12-19T15:37:36.978Z,2.47
2018-12-19T15:40:06.370Z,2.45
2018-12-19T15:42:35.877Z,2.53
2018-12-19T15:45:05.786Z,2.44
2018-12-19T15:47:34.866Z,2.45
2018-12-19T15:50:04.695Z,2.47
2018-12-19T15:52:34.345Z,2.45
2018-12-19T15:55:03.879Z,2.44
2018-12-19T15:57:33.517Z,2.45
2018-12-19T16:00:02.715Z,2.43
2018-12-19T16:02:32.288Z,2.40
2018-12-19T16:05:01.445Z,2.44
2018-12-19T16:07:30.519Z,2.54
2018-12-19T16:09:59.782Z,2.58
2018-12-19T16:12:28.835Z,2.68
2018-12-19T16:14:57.886Z,2.59
2018-12-19T16:17:26.957Z,2.61
2018-12-19T16:19:56.102Z,2.66
2018-12-19T16:22:25.161Z,2.67
2018-12-19T16:24:54.367Z,2.61
2018-12-19T16:27:23.591Z,2.61
2018-12-19T16:29:52.778Z,2.65
2018-12-19T16:32:21.852Z,2.63
2018-12-19T16:34:51.496Z,2.67
2018-12-19T16:37:20.557Z,2.72
2018-12-19T16:39:49.565Z,2.77
2018-12-19T16:42:18.942Z,2.83
2018-12-19T16:44:48.206Z,2.82
2018-12-19T16:47:17.277Z,2.85
2018-12-19T16:49:46.673Z,2.84
2018-12-19T16:52:17.442Z,2.81
2018-12-19T16:54:46.981Z,2.85
2018-12-19T16:57:16.137Z,2.84
2018-12-19T16:59:45.210Z,2.87
2018-12-19T17:02:15.653Z,2.79
2018-12-19T17:04:46.783Z,2.83
2018-12-19T17:07:16.096Z,2.79
2018-12-19T17:09:45.128Z,2.88
2018-12-19T17:12:14.237Z,2.92
2018-12-19T17:14:43.290Z,2.92
2018-12-19T17:17:12.601Z,2.95
2018-12-19T17:19:43.405Z,2.89
2018-12-19T17:22:20.422Z,2.85
2018-12-19T17:24:52.596Z,2.84
2018-12-19T17:27:23.460Z,2.92
2018-12-19T17:29:59.353Z,2.94
2018-12-19T17:32:29.502Z,2.93
2018-12-19T17:35:02.981Z,2.95
2018-12-19T17:37:36.305Z,2.94
2018-12-19T17:40:09.342Z,3.04
2018-12-19T17:42:43.644Z,3.00
2018-12-19T17:45:16.714Z,3.05
2018-12-19T17:47:50.865Z,2.95
2018-12-19T17:50:24.898Z,3.02
2018-12-19T17:52:54.165Z,3.00
2018-12-19T17:55:25.311Z,2.98
2018-12-19T17:57:59.186Z,2.96
2018-12-19T18:00:30.563Z,2.95
2018-12-19T18:03:00.179Z,3.12
2018-12-19T18:05:32.789Z,3.12
2018-12-19T18:08:07.274Z,3.14
2018-12-19T18:10:36.991Z,3.10
2018-12-19T18:13:08.332Z,3.01
2018-12-19T18:15:43.179Z,3.06
2018-12-19T18:18:13.085Z,3.04
2018-12-19T18:20:43.654Z,3.03
2018-12-19T18:23:13.282Z,3.07
2018-12-19T18:25:42.553Z,3.10
2018-12-19T18:28:13.040Z,3.10
2018-12-19T18:30:42.988Z,3.10
2018-12-19T18:33:12.987Z,3.20
2018-12-19T18:35:44.000Z,3.15
2018-12-19T18:38:24.250Z,3.14
2018-12-19T18:40:55.513Z,3.17
2018-12-19T18:43:32.053Z,3.16
2018-12-19T18:46:06.878Z,3.22
2018-12-19T18:48:38.030Z,3.17
2018-12-19T18:51:11.322Z,3.22
2018-12-19T18:53:45.668Z,3.27
2018-12-19T18:56:22.969Z,3.16
2018-12-19T18:58:54.582Z,3.31
2018-12-19T19:01:25.231Z,3.33
2018-12-19T19:06:43.837Z,3.28
2018-12-19T19:09:17.510Z,3.21
2018-12-19T19:11:55.274Z,3.23
2018-12-19T19:14:25.615Z,3.19
2018-12-19T19:16:58.003Z,3.19
2018-12-19T19:19:29.915Z,3.22
2018-12-19T19:22:01.314Z,3.14
2018-12-19T19:24:32.819Z,3.10
2018-12-19T19:27:05.110Z,3.11
2018-12-19T19:29:38.547Z,3.11
2018-12-19T19:32:12.338Z,3.07
2018-12-19T19:34:45.475Z,3.07
2018-12-19T19:37:15.614Z,3.11
2018-12-19T19:39:45.889Z,2.99
2018-12-19T19:42:19.051Z,3.04
2018-12-19T19:44:49.734Z,3.05
2018-12-19T19:47:21.830Z,3.18
2018-12-19T19:49:51.635Z,3.03
2018-12-19T19:52:25.320Z,3.02
2018-12-19T19:54:57.865Z,2.95
2018-12-19T19:57:27.659Z,2.92
2018-12-19T19:59:59.281Z,2.93
2018-12-19T20:02:31.074Z,2.95
2018-12-19T20:05:02.665Z,2.91
2018-12-19T20:07:38.076Z,2.91
2018-12-19T20:10:08.606Z,2.86
2018-12-19T20:12:38.393Z,2.82
2018-12-19T20:15:09.037Z,2.89
2018-12-19T20:17:41.225Z,2.99
2018-12-19T20:20:11.842Z,2.95
2018-12-19T20:22:46.697Z,2.97
2018-12-19T20:25:17.941Z,3.05
2018-12-19T20:27:48.477Z,3.10
2018-12-19T20:30:18.170Z,3.11
2018-12-19T20:32:47.603Z,3.09
2018-12-19T20:35:20.709Z,3.07
2018-12-19T20:37:55.130Z,3.13
2018-12-19T20:40:26.939Z,3.10
2018-12-19T20:43:06.523Z,3.12
2018-12-19T20:45:37.718Z,3.15
2018-12-19T20:48:09.198Z,3.23
2018-12-19T20:50:42.030Z,3.19
2018-12-19T20:53:14.300Z,3.22
2018-12-19T20:55:45.093Z,3.11
2018-12-19T20:58:15.695Z,3.17
2018-12-19T21:00:46.996Z,3.17
2018-12-19T21:03:20.606Z,3.24
2018-12-19T21:05:52.459Z,3.21
2018-12-19T21:08:23.098Z,3.08
2018-12-19T21:10:53.836Z,3.01
2018-12-19T21:13:25.218Z,3.03
2018-12-19T21:15:56.165Z,3.01
2018-12-19T21:18:31.938Z,3.01
2018-12-19T21:21:03.798Z,3.04
2018-12-19T21:23:33.998Z,3.09
2018-12-19T21:26:04.058Z,3.08
2018-12-19T21:28:35.815Z,3.15
2018-12-19T21:31:07.006Z,3.15
2018-12-19T21:33:42.481Z,3.10
2018-12-19T21:36:13.161Z,3.19
2018-12-19T21:38:43.357Z,3.14
2018-12-19T21:41:13.809Z,3.20
2018-12-19T21:43:43.294Z,3.29
2018-12-19T21:46:12.874Z,3.38
2018-12-19T21:48:42.023Z,3.41
2018-12-19T21:51:11.049Z,3.40
2018-12-19T21:53:41.651Z,3.38
2018-12-19T21:56:10.844Z,3.44
2018-12-19T21:58:39.956Z,3.35
2018-12-19T22:01:09.390Z,3.33
2018-12-19T22:03:38.638Z,3.32
2018-12-19T22:06:08.117Z,3.34
2018-12-19T22:08:37.285Z,3.28
2018-12-19T22:11:07.033Z,3.34
2018-12-19T22:13:36.320Z,3.32
2018-12-19T22:16:05.516Z,3.30
2018-12-19T22:18:39.972Z,3.35
2018-12-19T22:21:09.293Z,3.29
2018-12-19T22:23:38.632Z,3.23
2018-12-19T22:26:07.912Z,3.26
2018-12-19T22:28:37.231Z,3.32
2018-12-19T22:31:06.351Z,3.45
2018-12-19T22:33:35.479Z,3.50
2018-12-19T22:36:04.838Z,3.44
2018-12-19T22:38:33.907Z,3.38
2018-12-19T22:41:02.980Z,3.39
2018-12-19T22:43:33.090Z,3.50
2018-12-19T22:46:02.242Z,3.47
2018-12-19T22:48:31.287Z,3.49
2018-12-19T22:51:01.167Z,3.48
2018-12-19T22:53:30.461Z,3.48
2018-12-19T22:56:00.504Z,3.56
2018-12-19T22:58:29.998Z,3.49
2018-12-19T23:01:05.107Z,3.42
2018-12-19T23:03:39.555Z,3.37
2018-12-19T23:06:09.101Z,3.39
2018-12-19T23:08:38.674Z,3.43
2018-12-19T23:11:08.995Z,3.42
2018-12-19T23:13:38.018Z,3.48
2018-12-19T23:16:06.567Z,3.36
2018-12-19T23:18:41.630Z,3.32
2018-12-19T23:21:16.662Z,3.25
2018-12-19T23:23:51.761Z,3.42
2018-12-19T23:26:22.112Z,3.36
2018-12-19T23:28:57.286Z,3.31
2018-12-19T23:31:26.981Z,3.37
2018-12-19T23:33:56.037Z,3.34
2018-12-19T23:36:25.416Z,3.41
2018-12-19T23:38:54.759Z,3.46
2018-12-19T23:41:24.062Z,3.56
2018-12-19T23:43:53.161Z,3.49
2018-12-19T23:46:22.214Z,3.57
2018-12-19T23:48:51.290Z,3.64
2018-12-19T23:51:20.893Z,3.67
2018-12-19T23:53:51.032Z,3.64
2018-12-19T23:56:20.864Z,3.62
2018-12-19T23:58:50.028Z,3.56
